Time;durP1;ratioP1;P1;durP2;ratioP2;P2;SDS_P1;SDS_P2;PMS_P1;PMS_P2;Temp;Humidity;BMP_temperature;BMP_pressure;BME280_temperature;BME280_humidity;BME280_pressure;Samples;Min_cycle;Max_cycle;Signal;HPM_P1;HPM_P2
2022/01/13 14:40:18;;;;;;;40.57;20.17;;;;;;;4.63;58.12;102381.03;18588817;31;1533303;-68
2022/01/13 14:50:21;;;;;;;29.58;13.90;;;;;;;5.57;54.71;102343.56;18598983;31;20104;-67
2022/01/13 15:00:26;;;;;;;25.17;12.63;;;;;;;5.07;56.43;102335.91;18602841;32;20117;-69
2022/01/13 15:10:29;;;;;;;33.72;15.55;;;;;;;5.14;55.87;102316.41;18605207;31;20107;-68
2022/01/13 15:20:34;;;;;;;50.17;26.92;;;;;;;5.00;56.69;102328.63;18581621;31;20096;-68
2022/01/13 15:30:37;;;;;;;27.67;13.80;;;;;;;5.14;56.21;102311.22;18607539;31;20088;-68
2022/01/13 15:40:42;;;;;;;33.40;17.67;;;;;;;4.81;57.99;102311.28;18564710;32;20541;-68
2022/01/13 15:50:45;;;;;;;35.67;16.58;;;;;;;4.82;57.87;102305.28;18549382;32;20106;-68
2022/01/13 16:00:49;;;;;;;219.00;34.13;;;;;;;4.90;57.82;102290.16;18549470;32;20510;-68
2022/01/13 16:10:52;;;;;;;38.72;19.85;;;;;;;4.52;58.36;102277.87;18551698;32;20170;-68
2022/01/13 16:20:57;;;;;;;28.52;13.40;;;;;;;4.30;59.54;102268.97;18532098;32;20088;-69
2022/01/13 16:31:00;;;;;;;30.52;12.88;;;;;;;4.19;59.76;102249.44;18492484;32;20427;-68
2022/01/13 16:41:04;;;;;;;26.60;11.73;;;;;;;4.08;61.77;102248.84;18506370;32;20471;-67
2022/01/13 16:51:07;;;;;;;31.35;15.38;;;;;;;4.37;61.01;102239.16;18554422;32;20096;-68
2022/01/13 17:01:11;;;;;;;44.60;22.87;;;;;;;4.38;60.73;102243.53;18560188;32;20474;-67
2022/01/13 17:11:15;;;;;;;45.95;21.85;;;;;;;4.22;60.97;102235.75;18539632;32;20495;-67
2022/01/13 17:21:19;;;;;;;40.33;19.15;;;;;;;3.96;61.97;102238.72;18521823;32;20435;-67
2022/01/13 17:31:22;;;;;;;37.80;17.12;;;;;;;4.25;60.74;102226.47;18521366;32;20099;-68
2022/01/13 17:41:27;;;;;;;63.75;27.65;;;;;;;3.68;62.05;102236.31;18517228;32;20115;-68
2022/01/13 17:51:30;;;;;;;73.82;33.75;;;;;;;3.64;62.86;102249.84;18523109;32;20436;-67
2022/01/13 18:01:34;;;;;;;36.53;18.33;;;;;;;3.51;63.67;102254.31;18519307;32;20113;-67
2022/01/13 18:11:37;;;;;;;40.72;20.55;;;;;;;3.74;64.27;102247.88;18521139;32;20093;-67
2022/01/13 18:21:42;;;;;;;35.55;15.10;;;;;;;4.47;61.58;102250.00;18546513;32;20092;-67
2022/01/13 18:31:45;;;;;;;39.17;19.17;;;;;;;4.62;61.37;102237.88;18494207;32;20105;-67
2022/01/13 18:41:50;;;;;;;35.25;17.48;;;;;;;4.42;61.66;102211.88;18514061;32;20084;-67
2022/01/13 18:51:53;;;;;;;46.00;25.67;;;;;;;4.38;62.86;102176.28;18534980;32;20112;-67
2022/01/13 19:01:57;;;;;;;27.40;13.18;;;;;;;4.08;62.21;102165.22;18545176;32;20159;-67
2022/01/13 19:12:01;;;;;;;22.98;11.05;;;;;;;4.70;61.59;102135.69;18555780;32;20099;-67
2022/01/13 19:22:05;;;;;;;22.48;14.68;;;;;;;4.77;61.32;102136.88;18563833;32;20085;-67
2022/01/13 19:32:08;;;;;;;19.55;9.57;;;;;;;4.61;62.72;102136.91;18561358;32;20093;-67
2022/01/13 19:42:13;;;;;;;24.58;10.90;;;;;;;4.02;65.70;102120.19;18560576;32;20076;-67
2022/01/13 19:52:17;;;;;;;27.58;14.32;;;;;;;4.92;63.27;102099.59;18559883;32;20088;-69
2022/01/13 20:02:23;;;;;;;22.15;9.82;;;;;;;5.07;60.88;102102.03;18559436;32;20115;-68
2022/01/13 20:12:28;;;;;;;23.00;9.32;;;;;;;5.22;62.59;102079.47;18563870;32;20105;-67
2022/01/13 20:22:32;;;;;;;22.67;10.82;;;;;;;5.52;61.44;102073.06;18560967;32;20189;-67
2022/01/13 20:32:36;;;;;;;23.62;10.85;;;;;;;5.45;61.42;102087.41;18562772;32;20091;-68
2022/01/13 20:43:00;;;;;;;21.90;9.27;;;;;;;5.39;61.02;102093.19;18561611;32;20454;-68
2022/01/13 20:53:03;;;;;;;26.52;10.25;;;;;;;5.58;60.02;102060.37;18559700;32;20468;-67
2022/01/13 21:03:08;;;;;;;18.73;8.55;;;;;;;5.77;59.08;102071.56;18530779;32;20115;-68
2022/01/13 21:13:12;;;;;;;22.58;9.20;;;;;;;5.86;59.23;102074.56;18500187;32;20092;-68
2022/01/13 21:23:17;;;;;;;22.27;10.70;;;;;;;5.64;60.70;102065.84;18493660;32;20500;-68
2022/01/13 21:33:20;;;;;;;23.60;10.93;;;;;;;5.50;61.45;102067.78;18494691;32;20081;-68
2022/01/13 21:43:44;;;;;;;21.67;9.98;;;;;;;5.95;59.53;102041.25;18511286;32;20134;-69
2022/01/13 21:53:48;;;;;;;25.45;11.30;;;;;;;5.97;60.13;102036.16;18537615;32;20111;-68
2022/01/13 22:03:52;;;;;;;23.60;10.63;;;;;;;5.85;59.80;102033.91;18555257;31;20118;-68
2022/01/13 22:13:57;;;;;;;23.90;10.40;;;;;;;5.00;62.87;102013.75;18555485;32;20160;-68
2022/01/13 22:24:02;;;;;;;21.00;9.88;;;;;;;5.73;61.21;102010.94;18542595;32;20111;-68
2022/01/13 22:34:05;;;;;;;21.35;9.48;;;;;;;5.73;61.06;102003.16;18494330;32;20116;-68
2022/01/13 22:44:10;;;;;;;20.27;9.43;;;;;;;5.93;60.39;101995.38;18495597;32;20092;-68
2022/01/13 22:54:13;;;;;;;20.17;9.85;;;;;;;5.87;59.79;101990.78;18501896;32;20085;-68
2022/01/13 23:04:18;;;;;;;19.80;8.93;;;;;;;5.94;60.32;101984.19;18501409;32;20110;-68
2022/01/13 23:14:30;;;;;;;20.25;9.35;;;;;;;5.83;60.28;101969.06;18501091;32;20130;-68
2022/01/13 23:24:35;;;;;;;22.17;9.82;;;;;;;6.10;59.54;101972.78;18500891;32;20432;-68
2022/01/13 23:34:38;;;;;;;17.92;8.85;;;;;;;6.08;59.19;101961.47;18500261;32;20088;-67
2022/01/13 23:44:46;;;;;;;19.40;9.13;;;;;;;5.81;60.29;101929.22;18500263;32;20084;-68
2022/01/13 23:54:49;;;;;;;20.27;8.82;;;;;;;5.97;59.43;101933.34;18499717;32;20494;-68
